Sand Spring Valley, Nevada Weather observations

Data are for 10 minute period ending at time listed.
 Day   Time   Solar   Ave.   Ave.  Ave.  Vector  Max.   Baro.   Total    
  of    of     Rad.   Air    Rel.  Wind   Wind   Wind  Press.  Precip.   
Year   Day            Temp.  Hum.  Speed  Dir.   Gust                    
2016   (PST)  Kw/m2    F      %     mph   deg.    mph    mb.     in.     
-------------------------------------------------------------------------
 343    5:00   0.00   20.2    47    0.4   107     1.2   856.2    0.00 
 343    5:10   0.00   19.9    43    1.2    19     4.2   856.1    0.00 
 343    5:20   0.00   16.3    52    4.0   321     6.2   856.2    0.00 
 343    5:30   0.00   17.1    50    4.8   325     6.9   856.6    0.00 
 343    5:40   0.00   17.3    43    3.9   339     6.0   856.7    0.00 
 343    5:50   0.00   17.0    44    1.1   336     3.9   857.0    0.00 
 343    6:00   0.00   16.5    49    3.1   181     4.5   857.2    0.00 
 343    6:10   0.00   16.6    50    3.1   168     3.7   857.4    0.00 
 343    6:20   0.00   17.8    48    3.0   147     4.9   857.3    0.00 
 343    6:30   0.00   18.3    47    0.9   149     3.1   857.5    0.00 
 343    6:40   0.00   18.2    46    0.4   150     1.3   857.5    0.00 
 343    6:50   0.00   17.7    51    0.6   150     1.5   857.5    0.00 
 343    7:00   0.00   17.4    53    2.6   234     4.1   857.7    0.00 
 343    7:10   0.00   17.8    57    1.2   231     2.3   857.6    0.00 
 343    7:20   0.00   18.7    56    1.0   230     2.0   857.6    0.00 
 343    7:30   0.00   19.7    51    1.5   209     2.7   857.4    0.00 
 343    7:40   0.00   21.0    50    1.7   244     3.4   857.5    0.00 
 343    7:50   0.00   21.8    42    4.0   282     5.4   857.8    0.00 
 343    8:00   0.00   22.3    41    4.2   273     5.7   857.9    0.00 
 343    8:10   0.00   23.2    41    3.2   256     4.5   857.9    0.00 
 343    8:20   0.00   24.3    38    3.4   259     4.7   858.0    0.00 
 343    8:30   0.00   25.6    35    2.3   280     3.7   858.0    0.00 
 343    8:40   0.00   27.1    33    2.0   312     4.7   858.2    0.00 
 343    8:50   0.00   28.3    31    1.2   306     2.7   858.1    0.00 
 343    9:00   0.00   31.2    28    0.4   299     3.5   858.1    0.00 
 343    9:10   0.00   30.3    28    2.2   346     3.9   858.2    0.00 
 343    9:20   0.00   30.5    28    1.8   337     3.4   858.4    0.00 
 343    9:30   0.00   31.2    28    1.7   344     3.8   858.4    0.00 
 343    9:40   0.00   31.7    27    1.7   309     3.6   858.5    0.00 
 343    9:50   0.00   32.5    26    1.3   357     3.4   858.6    0.00 
 343   10:00   0.00   33.1    26    1.1    45     3.1   858.5    0.00 
 343   10:10   0.00   34.2    25    1.4    76     3.4   858.2    0.00 
 343   10:20   0.00   34.7    25    1.9    36     3.7   858.1    0.00 
 343   10:30   0.00   35.2    24    1.1    18     4.0   858.1    0.00 
 343   10:40   0.00   35.6    24    2.7    30     6.3   858.0    0.00 
 343   10:50   0.00   35.8    23    2.8    10     5.3   857.9    0.00 
 343   11:00   0.00   36.7    23    2.8    53     5.0   857.7    0.00 
 343   11:10   0.00   37.4    22    3.0    63     6.6   857.5    0.00 
 343   11:20   0.00   37.8    22    2.5    71     5.3   857.2    0.00 
 343   11:30   0.00   38.5    22    3.1    83     6.9   856.9    0.00 
 343   11:40   0.00   39.1    21    3.4    63     7.4   856.7    0.00 
 343   11:50   0.00   39.7    21    2.2   116     5.0   856.5    0.00 
 343   12:00   0.00   40.6    20    2.1    86     5.3   856.4    0.00 
 343   12:10   0.00   41.3    20    2.0   102     4.5   856.1    0.00 
 343   12:20   0.00   41.8    19    2.0    34     5.3   856.0    0.00 
 343   12:30   0.00   43.2    19    2.1    24     5.1   856.0    0.00 
 343   12:40   0.00   44.2    19    5.5   109    10.5   855.6    0.00 
 343   12:50   0.00   45.0    19   10.5   123    15.6   855.5    0.00 
 343   13:00   0.00   45.3    19    8.1   128    12.6   855.4    0.00 
 343   13:10   0.00   45.6    20    8.6   232    16.1   855.3    0.00 
 343   13:20   0.00   45.3    19    9.9   130    15.3   855.4    0.00 
 343   13:30   0.00   45.2    19   11.0   132    15.5   855.2    0.00 
 343   13:40   0.00   45.2    19    9.6   135    14.2   855.2    0.00 
 343   13:50   0.00   45.0    19   10.8   126    16.6   855.2    0.00 
 343   14:00   0.00   44.9    19   11.2   124    15.8   855.2    0.00 
 343   14:10   0.00   45.1    19   10.5   134    15.3   855.3    0.00 
 343   14:20   0.00   44.6    19   11.0   133    15.6   855.4    0.00 
 343   14:30   0.00   44.2    19   12.1   122    17.3   855.2    0.00 
 343   14:40   0.00   44.0    20   11.8   126    16.7   855.3    0.00 
 343   14:50   0.00   43.8    20   11.2   128    15.3   855.5    0.00 
 343   15:00   0.00   43.4    20   10.7   135    14.7   855.5    0.00 
 343   15:10   0.00   43.0    21   10.5   129    15.4   855.7    0.00 
 343   15:20   0.00   43.3    21    9.7   131    14.0   855.8    0.00 
 343   15:30   0.00   43.8    20   10.3   127    14.7   855.8    0.00 
 343   15:40   0.00   43.4    21    9.2   126    13.0   855.9    0.00 
 343   15:50   0.00   42.6    22    8.1   126    11.8   855.9    0.00 
 343   16:00   0.00   41.9    22    8.9   119    12.4   856.0    0.00 
 343   16:10   0.00   40.8    23    9.1   119    12.3   856.0    0.00 
 343   16:20   0.00   40.0    23    8.5   117    11.2   856.1    0.00 
 343   16:30   0.00   39.4    24    7.3   123    10.1   856.2    0.00 
 343   16:40   0.00   38.4    25    6.2   131     8.8   856.3    0.00 
 343   16:50   0.00   38.2    25    6.7   124     9.1   856.3    0.00 
 343   17:00   0.00   37.4    26    5.1   126     8.2   856.5    0.00 
 343   17:10   0.00   35.7    27    1.5   185     3.6   856.7    0.00 
 343   17:20   0.00   37.3    25    1.5   116     3.1   856.7    0.00 
 343   17:30   0.00   38.0    24    1.1   109     2.9   856.9    0.00 
 343   17:40   0.00   37.7    26    1.3   181     4.9   857.1    0.00 
 343   17:50   0.00   38.1    26    0.7   115     2.9   857.2    0.00 
 343   18:00   0.00   38.1    25    0.7    85     2.4   857.3    0.00 
 343   18:10   0.00   37.7    25    1.2     4     2.9   857.3    0.00 
 343   18:20   0.00   35.0    28    2.6   316     5.0   857.2    0.00 
 343   18:30   0.00   34.5    28    3.6   330     5.0   857.4    0.00 
 343   18:40   0.00   35.8    27    2.6   316     6.3   857.5    0.00 
 343   18:50   0.00   33.5    30    4.1    78     5.8   857.5    0.00 
 343   19:00   0.00   35.3    28    3.7    13     4.7   857.5    0.00 
 343   19:10   0.00   33.4    29    2.5   351     3.9   857.5    0.00 
 343   19:20   0.00   26.3    39    4.1   322     5.5   857.5    0.00 
 343   19:30   0.00   27.5    38    3.8   303     6.1   857.6    0.00 
 343   19:40   0.00   26.3    44    4.3   256     5.3   857.6    0.00 
 343   19:50   0.00   29.5    36    4.0   335     7.9   857.6    0.00 
 343   20:00   0.00   28.1    38    3.7    40     5.7   857.8    0.00 
 343   20:10   0.00   27.4    38    3.7    23     5.9   857.9    0.00 
 343   20:20   0.00   28.1    35    4.0   357     6.8   857.8    0.00 
 343   20:30   0.00   30.4    33    5.6   360     8.2   857.8    0.00 
 343   20:40   0.00   32.2    32    5.3    29     7.2   857.7    0.00 
 343   20:50   0.00   32.0    33    4.1   356     6.0   858.0    0.00 
 343   21:00   0.00   32.0    32    5.6    52     7.7   858.1    0.00 
 343   21:10   0.00   30.2    32    4.7    27     6.1   858.3    0.00 
 343   21:20   0.00   28.6    33    2.4    19     4.0   858.3    0.00 
 343   21:30   0.00   27.1    37    1.2   256     3.2   858.4    0.00 
 343   21:40   0.00   27.8    35    1.2   318     3.4   858.3    0.00 
 343   21:50   0.00   28.5    35    3.0    55     5.8   858.4    0.00 
 343   22:00   0.00   27.4    37    2.5   160     4.5   858.3    0.00 
 343   22:10   0.00   25.6    38    2.5   186     4.1   858.2    0.00 
 343   22:20   0.00   22.1    49    3.4   245     4.7   858.2    0.00 
 343   22:30   0.00   21.3    52    3.4   290     5.5   858.4    0.00 
 343   22:40   0.00   23.1    50    3.5   318     6.1   858.4    0.00 
 343   22:50   0.00   25.6    41    3.8   321     5.7   858.4    0.00 
 343   23:00   0.00   23.3    44    1.9   283     3.7   858.5    0.00 
 343   23:10   0.00   23.1    46    2.9   293     5.6   858.6    0.00 
 343   23:20   0.00   23.4    44    2.9   292     5.0   858.7    0.00 
 343   23:30   0.00   25.9    38    2.2   359     3.4   858.7    0.00 
 343   23:40   0.00   25.2    39    2.6   335     5.1   858.7    0.00 
 343   23:50   0.00   22.7    47    3.8   213     7.0   858.7    0.00 
 344    0:00   0.00   19.5    55    2.5   242     3.5   859.0    0.00 
 344    0:10   0.00   18.4    59    2.1   222     4.5   859.0    0.00 
 344    0:20   0.00   17.2    63    2.7   217     5.7   858.9    0.00 
 344    0:30   0.00   16.9    65    3.3   248     5.3   858.9    0.00 
 344    0:40   0.00   16.6    62    4.1   258     5.6   859.0    0.00 
 344    0:50   0.00   16.3    61    4.0   239     5.1   858.9    0.00 
 344    1:00   0.00   16.1    62    3.1   267     4.4   859.0    0.00 
 344    1:10   0.00   17.1    62    3.6   244     4.4   859.0    0.00 
 344    1:20   0.00   18.7    59    3.8   246     5.1   859.2    0.00 
 344    1:30   0.00   20.0    56    3.9   273     5.0   859.2    0.00 
 344    1:40   0.00   18.6    54    2.1   309     3.4   859.2    0.00 
 344    1:50   0.00   18.4    59    3.7   246     4.5   859.1    0.00 
 344    2:00   0.00   19.3    58    3.8   232     5.3   859.2    0.00 
 344    2:10   0.00   19.6    59    1.6   222     3.1   859.3    0.00 
 344    2:20   0.00   19.5    60    1.2   217     2.6   859.3    0.00 
 344    2:30   0.00   19.7    55    0.4   246     1.9   859.3    0.00 
 344    2:40   0.00   19.5    52    0.7   305     1.5   859.3    0.00 
 344    2:50   0.00   19.6    53    0.5   249     1.3   859.3    0.00 
 344    3:00   0.00   20.0    53    2.1   244     3.5   859.2    0.00 
 344    3:10   0.00   19.8    56    3.7   251     4.9   859.3    0.00 
 344    3:20   0.00   18.8    61    3.1   261     3.7   859.3    0.00 
 344    3:30   0.00   18.7    61    3.2   260     4.6   859.3    0.00 
 344    3:40   0.00   18.8    60    3.2   251     3.7   859.0    0.00 
 344    3:50   0.00   18.3    60    2.7   232     3.7   859.0    0.00 
 344    4:00   0.00   18.1    61    2.9   237     4.8   859.0    0.00 
 344    4:10   0.00   18.0    62    3.4   256     3.9   859.0    0.00 
 344    4:20   0.00   18.1    61    2.9   264     3.7   858.9    0.00 
 344    4:30   0.00   18.0    59    3.0   282     4.6   858.9    0.00 
 344    4:40   0.00   18.2    57    1.8   304     3.4   858.7    0.00 
 344    4:50   0.00   18.5    56    1.0   320     3.0   858.8    0.00 

Return to Sand Spring Valley graphs page.


Western Regional Climate Center,wrcc@dri.edu